Time;durP1;ratioP1;P1;durP2;ratioP2;P2;SDS_P1;SDS_P2;PMS_P1;PMS_P2;Temp;Humidity;BMP_temperature;BMP_pressure;BME280_temperature;BME280_humidity;BME280_pressure;Samples;Min_cycle;Max_cycle;Signal;HPM_P1;HPM_P2
2022/03/25 00:00:49;;;;;;;18.67;16.77;;;4.60;99.90;;;5.61;65.68;98847.00;5229709;28;20258;-52
2022/03/25 00:03:23;;;;;;;19.00;17.00;;;4.60;99.90;;;5.57;65.89;98848.34;5228575;28;20259;-51
2022/03/25 00:05:58;;;;;;;17.57;15.77;;;4.60;99.90;;;5.53;66.01;98850.47;5234376;28;20659;-52
2022/03/25 00:08:31;;;;;;;17.90;16.07;;;4.50;99.90;;;5.41;66.40;98847.69;5229374;28;20193;-51
2022/03/25 00:11:05;;;;;;;19.07;17.07;;;4.50;99.90;;;5.34;67.03;98848.75;5230876;28;20208;-55
2022/03/25 00:13:38;;;;;;;18.70;16.67;;;4.40;99.90;;;5.38;66.93;98850.84;5230662;28;20253;-55
2022/03/25 00:16:11;;;;;;;18.50;16.50;;;4.40;99.90;;;5.48;66.10;98852.56;5215945;28;20652;-51
2022/03/25 00:18:44;;;;;;;18.50;16.50;;;4.30;99.90;;;5.33;66.65;98851.16;5211358;28;20581;-56
2022/03/25 00:21:19;;;;;;;19.23;17.23;;;4.30;99.90;;;5.24;66.59;98850.31;5213781;28;20677;-53
2022/03/25 00:23:52;;;;;;;20.17;17.03;;;4.20;99.90;;;5.16;67.08;98852.09;5214942;28;20216;-52
2022/03/25 00:26:25;;;;;;;19.27;17.20;;;4.20;99.90;;;5.09;66.86;98844.66;5214502;28;20264;-54
2022/03/25 00:28:58;;;;;;;19.33;17.43;;;4.10;99.90;;;5.07;67.14;98852.13;5219382;28;20221;-52
2022/03/25 00:31:32;;;;;;;19.50;17.50;;;4.10;99.90;;;5.04;67.23;98848.44;5212052;28;20204;-54
2022/03/25 00:34:05;;;;;;;19.00;17.00;;;4.00;99.90;;;4.96;67.53;98853.66;5221553;28;20562;-55
2022/03/25 00:36:39;;;;;;;18.07;16.27;;;3.90;99.90;;;4.92;67.35;98844.00;5222097;28;20235;-55
2022/03/25 00:39:13;;;;;;;19.03;16.80;;;3.90;99.90;;;4.84;67.65;98847.44;5221155;28;20700;-55
2022/03/25 00:41:48;;;;;;;20.93;18.07;;;3.90;99.90;;;4.80;67.99;98845.34;5218282;28;20254;-53
2022/03/25 00:44:21;;;;;;;19.17;17.23;;;3.90;99.90;;;4.81;68.30;98847.16;5216750;28;20702;-53
2022/03/25 00:46:54;;;;;;;20.10;17.97;;;3.90;99.90;;;4.85;68.03;98840.72;5219762;28;20257;-54
2022/03/25 00:49:27;;;;;;;19.53;17.43;;;3.90;99.90;;;4.79;68.82;98846.09;5214259;28;20281;-55
2022/03/25 00:52:03;;;;;;;19.97;17.87;;;3.90;99.90;;;4.71;68.47;98840.28;5219578;28;20233;-57
2022/03/25 00:54:37;;;;;;;19.57;17.03;;;3.80;99.90;;;4.76;68.10;98838.22;5219146;28;20231;-51
2022/03/25 00:57:10;;;;;;;18.90;17.00;;;3.80;99.90;;;4.69;68.68;98838.34;5219988;28;20661;-51
2022/03/25 00:59:43;;;;;;;20.83;18.63;;;3.70;99.90;;;4.63;69.16;98845.38;5218721;28;20689;-54
2022/03/25 01:02:17;;;;;;;19.33;17.33;;;3.70;99.90;;;4.57;69.25;98839.72;5219380;28;20244;-51
2022/03/25 01:04:51;;;;;;;22.67;19.60;;;3.70;99.90;;;4.61;69.14;98834.22;5212103;28;20271;-52
2022/03/25 01:07:26;;;;;;;20.37;18.27;;;3.70;99.90;;;4.66;69.31;98840.59;5215331;28;20249;-52
2022/03/25 01:09:59;;;;;;;19.50;17.53;;;3.70;99.90;;;4.69;69.20;98851.03;5220453;28;20712;-52
2022/03/25 01:12:32;;;;;;;19.33;17.27;;;3.80;99.90;;;4.67;69.20;98839.88;5215401;28;20202;-53
2022/03/25 01:15:07;;;;;;;20.53;18.33;;;3.70;99.90;;;4.71;69.07;98845.34;5222590;28;20194;-52
2022/03/25 01:17:40;;;;;;;20.80;18.70;;;3.70;99.90;;;4.65;69.08;98838.81;5218676;28;20203;-50
2022/03/25 01:20:13;;;;;;;20.03;18.00;;;3.70;99.90;;;4.60;69.07;98835.84;5208494;28;20223;-54
2022/03/25 01:22:48;;;;;;;20.67;18.40;;;3.60;99.90;;;4.55;69.74;98844.66;5217912;28;20202;-51
2022/03/25 01:25:21;;;;;;;22.37;19.10;;;3.60;99.90;;;4.51;69.93;98835.84;5215719;28;20308;-55
2022/03/25 01:27:54;;;;;;;21.93;19.27;;;3.60;99.90;;;4.42;69.51;98839.16;5215672;28;20255;-52
2022/03/25 01:30:27;;;;;;;20.83;18.03;;;3.60;99.90;;;4.44;70.02;98838.56;5218106;28;20319;-51
2022/03/25 01:33:00;;;;;;;21.50;19.23;;;3.50;99.90;;;4.44;70.05;98836.03;5214270;28;20294;-51
2022/03/25 01:35:33;;;;;;;20.10;18.13;;;3.50;99.90;;;4.49;70.01;98831.38;5213147;28;20200;-56
2022/03/25 01:38:08;;;;;;;21.50;19.27;;;3.60;99.90;;;4.36;70.18;98833.50;5216078;28;20197;-55
2022/03/25 01:40:42;;;;;;;21.33;17.97;;;3.50;99.90;;;4.29;70.12;98839.59;5217063;28;20639;-51
2022/03/25 01:43:15;;;;;;;21.63;19.40;;;3.40;99.90;;;4.18;70.31;98838.56;5214368;28;20296;-54
2022/03/25 01:45:48;;;;;;;21.90;18.93;;;3.40;99.90;;;4.20;71.30;98836.16;5211367;28;20290;-51
2022/03/25 01:48:22;;;;;;;21.40;18.50;;;3.40;99.90;;;4.25;70.09;98842.56;5208363;28;20567;-52
2022/03/25 01:50:55;;;;;;;23.67;20.60;;;3.40;99.90;;;4.20;70.65;98836.16;5207436;28;20225;-53
2022/03/25 01:53:30;;;;;;;22.33;19.93;;;3.40;99.90;;;4.20;70.75;98841.22;5212316;28;20292;-51
2022/03/25 01:56:05;;;;;;;23.10;19.13;;;3.40;99.90;;;4.21;70.13;98837.97;5213790;28;20715;-51
2022/03/25 01:58:41;;;;;;;21.47;18.73;;;3.30;99.90;;;4.21;69.99;98827.84;5212097;28;20201;-51
2022/03/25 02:01:14;;;;;;;22.13;19.30;;;3.40;99.90;;;4.23;70.30;98839.88;5210976;28;20703;-50
2022/03/25 02:03:47;;;;;;;21.50;18.73;;;3.40;99.90;;;4.14;70.51;98831.41;5213817;28;20262;-54
2022/03/25 02:06:21;;;;;;;22.27;19.57;;;3.30;99.90;;;4.10;70.52;98839.44;5215553;28;20287;-54
2022/03/25 02:08:56;;;;;;;21.27;18.97;;;3.30;99.90;;;4.16;71.12;98834.09;5216124;28;20758;-55
2022/03/25 02:11:29;;;;;;;22.13;19.60;;;3.30;99.90;;;4.18;70.96;98835.16;5222113;28;20280;-56
2022/03/25 02:14:03;;;;;;;22.93;19.60;;;3.30;99.90;;;4.17;70.69;98831.69;5214914;28;20897;-54
2022/03/25 02:16:37;;;;;;;22.37;19.70;;;3.30;99.90;;;4.22;70.73;98834.69;5217596;28;20733;-56
2022/03/25 02:19:13;;;;;;;23.43;20.30;;;3.20;99.90;;;4.16;70.25;98834.09;5215432;28;20225;-55
2022/03/25 02:21:49;;;;;;;22.00;19.57;;;3.20;99.90;;;4.12;70.00;98837.06;5217659;28;20198;-54
2022/03/25 02:24:22;;;;;;;22.33;19.77;;;3.10;99.90;;;4.07;70.15;98834.09;5212267;28;20229;-55
2022/03/25 02:26:57;;;;;;;21.73;18.90;;;3.00;99.90;;;3.97;70.81;98841.50;5217001;28;20211;-56
2022/03/25 02:29:32;;;;;;;21.70;19.37;;;3.00;99.90;;;3.96;71.07;98837.22;5214482;28;20213;-57
2022/03/25 02:32:06;;;;;;;22.57;20.00;;;3.00;99.90;;;3.96;71.04;98840.63;5214831;28;20230;-53
2022/03/25 02:34:45;;;;;;;21.13;18.80;;;3.00;99.90;;;3.87;71.52;98839.72;5209398;28;20199;-57
2022/03/25 02:37:20;;;;;;;22.73;20.03;;;3.00;99.90;;;3.88;71.85;98836.44;5217836;28;20206;-56
2022/03/25 02:39:53;;;;;;;22.87;20.40;;;2.90;99.90;;;3.78;71.27;98843.88;5212300;28;20223;-58
2022/03/25 02:42:26;;;;;;;22.97;20.60;;;2.90;99.90;;;3.74;71.65;98840.13;5216430;28;20204;-55
2022/03/25 02:44:59;;;;;;;22.40;20.07;;;2.80;99.90;;;3.72;71.46;98838.19;5217936;28;20596;-56
2022/03/25 02:47:32;;;;;;;23.17;20.27;;;2.80;99.90;;;3.72;71.82;98840.72;5214254;28;20197;-54
2022/03/25 02:50:07;;;;;;;22.30;19.90;;;2.80;99.90;;;3.75;71.26;98839.41;5214331;28;20235;-53
2022/03/25 02:52:41;;;;;;;22.13;19.83;;;2.80;99.90;;;3.75;71.83;98830.91;5211972;28;20655;-52
2022/03/25 02:55:14;;;;;;;21.90;19.07;;;2.70;99.90;;;3.71;71.54;98833.88;5211801;28;20199;-52
2022/03/25 02:57:47;;;;;;;22.10;19.80;;;2.70;99.90;;;3.67;71.80;98841.94;5218223;28;20204;-54
2022/03/25 03:00:21;;;;;;;23.50;19.67;;;2.70;99.90;;;3.63;71.52;98838.19;5215000;28;20589;-55
2022/03/25 03:02:55;;;;;;;24.10;20.33;;;2.70;99.90;;;3.61;72.03;98835.50;5216572;28;20202;-56
2022/03/25 03:05:28;;;;;;;24.70;20.70;;;2.70;99.90;;;3.58;72.18;98836.84;5214974;28;20225;-55
2022/03/25 03:08:03;;;;;;;23.40;20.90;;;2.60;99.90;;;3.56;71.93;98841.75;5221747;28;20207;-56
2022/03/25 03:10:37;;;;;;;21.73;19.47;;;2.60;99.90;;;3.59;71.63;98838.63;5215148;28;20271;-56
2022/03/25 03:13:10;;;;;;;24.23;21.63;;;2.60;99.90;;;3.49;72.43;98841.88;5211340;28;20213;-54
2022/03/25 03:15:43;;;;;;;24.50;20.87;;;2.50;99.90;;;3.32;72.45;98844.31;5218397;28;20202;-56
2022/03/25 03:18:17;;;;;;;24.33;20.87;;;2.50;99.90;;;3.13;73.82;98836.53;5211610;28;20209;-57
2022/03/25 03:20:50;;;;;;;23.67;20.77;;;2.30;99.90;;;3.16;73.58;98837.72;5220895;28;20229;-58
2022/03/25 03:23:25;;;;;;;24.77;20.07;;;2.30;99.90;;;3.21;73.39;98834.78;5216867;28;20207;-57
2022/03/25 03:25:58;;;;;;;25.33;20.90;;;2.40;99.90;;;3.28;73.82;98837.19;5222018;28;20220;-58
2022/03/25 03:28:31;;;;;;;23.13;20.63;;;2.50;99.90;;;3.28;73.48;98834.66;5209896;28;20202;-58
2022/03/25 03:31:04;;;;;;;24.70;19.60;;;2.50;99.90;;;3.37;73.16;98833.06;5218255;28;20725;-56
2022/03/25 03:33:37;;;;;;;21.77;19.57;;;2.50;99.90;;;3.35;73.57;98835.44;5216111;28;20596;-56
2022/03/25 03:36:10;;;;;;;24.00;20.67;;;2.50;99.90;;;3.30;73.26;98831.56;5210298;28;20199;-55
2022/03/25 03:38:44;;;;;;;24.80;20.60;;;2.50;99.90;;;3.35;73.72;98834.56;5218858;28;20227;-57
2022/03/25 03:41:18;;;;;;;24.23;19.80;;;2.50;99.90;;;3.46;73.57;98831.44;5213221;28;20570;-58
2022/03/25 03:43:51;;;;;;;25.33;19.60;;;2.60;99.90;;;3.51;72.23;98836.97;5214340;28;20194;-55
2022/03/25 03:46:24;;;;;;;24.33;19.87;;;2.50;99.90;;;3.42;72.35;98833.53;5215687;28;20221;-57
2022/03/25 03:48:57;;;;;;;24.50;20.87;;;2.40;99.90;;;3.33;72.29;98830.97;5217719;28;20546;-57
2022/03/25 03:51:30;;;;;;;22.93;20.23;;;2.40;99.90;;;3.19;74.77;98826.16;5215159;28;20194;-58
2022/03/25 03:54:05;;;;;;;23.17;20.23;;;2.40;99.90;;;3.22;73.52;98824.81;5221893;28;20205;-57
2022/03/25 03:56:38;;;;;;;25.53;21.57;;;2.40;99.90;;;3.20;73.53;98823.78;5221023;28;20198;-56
2022/03/25 03:59:11;;;;;;;23.10;20.60;;;2.40;99.90;;;3.21;74.12;98823.06;5219876;28;20224;-56
2022/03/25 04:01:45;;;;;;;23.80;21.00;;;2.40;99.90;;;3.22;73.75;98831.53;5217598;28;20202;-58
2022/03/25 04:04:18;;;;;;;26.23;21.63;;;2.40;99.90;;;3.21;74.13;98827.22;5219415;28;20661;-58
2022/03/25 04:06:52;;;;;;;24.93;21.07;;;2.30;99.90;;;3.22;73.69;98832.41;5221817;28;20220;-57
2022/03/25 04:09:26;;;;;;;24.00;20.53;;;2.40;99.90;;;3.24;73.96;98835.09;5220722;28;20243;-58
2022/03/25 04:11:59;;;;;;;24.70;20.80;;;2.40;99.90;;;3.23;74.41;98826.59;5220356;28;20204;-56
2022/03/25 04:14:32;;;;;;;24.30;21.03;;;2.40;99.90;;;3.12;73.67;98828.06;5217649;28;20206;-57
2022/03/25 04:17:05;;;;;;;25.90;21.60;;;2.30;99.90;;;3.03;74.08;98824.59;5213505;28;20223;-57
2022/03/25 04:19:39;;;;;;;26.37;21.17;;;2.20;99.90;;;3.02;73.77;98827.88;5221853;28;20222;-57
2022/03/25 04:22:12;;;;;;;24.23;20.87;;;2.20;99.90;;;3.00;73.80;98836.91;5224039;28;20201;-55
2022/03/25 04:24:46;;;;;;;25.83;21.00;;;2.20;99.90;;;2.99;74.46;98837.66;5220160;28;20562;-57
2022/03/25 04:27:19;;;;;;;24.50;20.90;;;2.20;99.90;;;2.97;74.63;98844.16;5222554;28;20200;-57
2022/03/25 04:29:55;;;;;;;25.40;21.47;;;2.20;99.90;;;3.01;74.24;98836.19;5221067;28;20646;-57
2022/03/25 04:32:28;;;;;;;24.10;21.23;;;2.30;99.90;;;3.00;74.54;98829.34;5211527;28;20205;-54
2022/03/25 04:35:01;;;;;;;24.70;21.57;;;2.30;99.90;;;2.93;74.32;98837.91;5219245;28;20194;-56
2022/03/25 04:37:34;;;;;;;23.80;21.27;;;2.20;99.90;;;2.95;74.57;98840.63;5217568;28;20204;-56
2022/03/25 04:40:11;;;;;;;25.57;22.73;;;2.10;99.90;;;2.89;74.71;98839.97;5216298;28;20601;-53
2022/03/25 04:42:44;;;;;;;26.53;21.97;;;2.10;99.90;;;2.70;75.25;98840.63;5215470;28;20215;-57
2022/03/25 04:45:18;;;;;;;28.10;22.97;;;2.00;99.90;;;2.64;74.90;98844.16;5215214;28;20597;-53
2022/03/25 04:47:52;;;;;;;30.50;23.27;;;1.90;99.90;;;2.55;75.51;98845.69;5219566;28;20672;-54
2022/03/25 04:50:25;;;;;;;24.33;21.53;;;1.80;99.90;;;2.64;74.36;98841.63;5219279;28;20605;-55
2022/03/25 04:52:59;;;;;;;27.60;23.03;;;1.90;99.90;;;2.65;74.95;98843.41;5221224;28;20201;-55
2022/03/25 04:55:34;;;;;;;27.50;22.03;;;1.80;99.90;;;2.56;74.96;98843.34;5212891;28;20659;-56
2022/03/25 04:58:08;;;;;;;28.77;23.90;;;1.80;99.90;;;2.56;76.04;98838.31;5218141;28;20294;-54
2022/03/25 05:00:42;;;;;;;26.97;21.57;;;1.80;99.90;;;2.58;76.02;98841.88;5211134;28;20227;-57
2022/03/25 05:03:16;;;;;;;28.20;23.00;;;1.80;99.90;;;2.60;75.69;98839.50;5217186;28;20303;-53
2022/03/25 05:05:49;;;;;;;25.50;22.53;;;1.90;99.90;;;2.57;75.96;98845.13;5218603;28;20221;-55
2022/03/25 05:08:22;;;;;;;30.13;23.63;;;1.80;99.90;;;2.64;76.34;98842.50;5215991;28;20200;-55
2022/03/25 05:10:56;;;;;;;26.83;23.70;;;2.00;99.90;;;2.67;76.19;98837.78;5216806;28;20201;-55
2022/03/25 05:13:33;;;;;;;28.03;23.23;;;2.00;99.90;;;2.71;76.44;98846.56;5216704;28;20256;-55
2022/03/25 05:16:07;;;;;;;24.73;22.07;;;2.00;99.90;;;2.81;75.72;98850.94;5214638;28;20207;-58
2022/03/25 05:18:40;;;;;;;24.43;21.30;;;2.00;99.90;;;2.83;75.45;98849.44;5214777;28;20189;-57
2022/03/25 05:21:13;;;;;;;27.43;23.73;;;2.00;99.90;;;2.83;75.11;98851.97;5221912;28;20202;-56
2022/03/25 05:23:46;;;;;;;26.73;21.97;;;2.00;99.90;;;2.86;74.44;98845.63;5214606;28;20204;-56
2022/03/25 05:26:21;;;;;;;25.97;21.60;;;1.90;99.90;;;2.78;74.72;98848.09;5216946;28;20231;-57
2022/03/25 05:28:54;;;;;;;29.13;22.90;;;1.80;99.90;;;2.74;74.12;98848.50;5219714;28;20232;-58
2022/03/25 05:31:27;;;;;;;26.57;21.67;;;1.90;99.90;;;2.71;75.27;98852.50;5218349;28;20206;-57
2022/03/25 05:34:00;;;;;;;30.17;23.67;;;1.90;99.90;;;2.69;75.58;98850.56;5216557;28;20204;-57
2022/03/25 05:36:34;;;;;;;28.60;22.70;;;1.90;99.90;;;2.72;75.81;98855.94;5215408;28;20242;-56
2022/03/25 05:39:07;;;;;;;28.53;24.00;;;1.90;99.90;;;2.74;75.29;98861.13;5214142;28;20466;-58
2022/03/25 05:41:42;;;;;;;28.90;23.03;;;1.90;99.90;;;2.80;74.57;98860.13;5213459;28;20198;-57
2022/03/25 05:44:15;;;;;;;27.10;22.97;;;2.00;99.90;;;2.86;74.32;98855.72;5219383;28;20204;-58
2022/03/25 05:46:48;;;;;;;28.63;23.97;;;2.00;99.90;;;2.92;74.44;98861.41;5210851;28;20235;-57
2022/03/25 05:49:21;;;;;;;27.60;23.40;;;2.10;99.90;;;2.95;74.21;98865.88;5212461;28;20235;-57
2022/03/25 05:51:54;;;;;;;30.33;24.40;;;2.10;99.90;;;3.02;74.90;98863.22;5215850;28;20195;-56
2022/03/25 05:54:27;;;;;;;26.00;22.83;;;2.20;99.90;;;3.03;74.30;98859.06;5210902;28;20199;-56
2022/03/25 05:57:02;;;;;;;26.27;22.80;;;2.20;99.90;;;3.19;74.22;98859.88;5211215;28;20201;-55
2022/03/25 05:59:35;;;;;;;26.40;23.60;;;2.40;99.90;;;3.37;73.84;98860.84;5211451;28;20212;-55
2022/03/25 06:02:08;;;;;;;28.13;23.33;;;2.50;99.90;;;3.58;72.73;98865.53;5218860;28;20578;-56
2022/03/25 06:04:42;;;;;;;27.67;22.90;;;2.70;99.90;;;3.71;72.07;98856.63;5218854;28;20194;-54
2022/03/25 06:07:15;;;;;;;29.23;23.03;;;2.90;99.90;;;3.86;72.41;98867.38;5218808;28;20213;-54
2022/03/25 06:09:48;;;;;;;28.70;24.23;;;3.00;99.90;;;3.81;71.37;98864.41;5218778;28;20227;-55
2022/03/25 06:12:22;;;;;;;30.20;24.83;;;2.80;99.90;;;3.70;71.03;98864.97;5217690;28;20202;-54
2022/03/25 06:14:55;;;;;;;28.33;23.87;;;2.80;99.90;;;3.82;71.41;98864.53;5214688;28;20193;-56
2022/03/25 06:17:29;;;;;;;28.67;23.50;;;2.80;99.90;;;3.88;71.31;98863.38;5215616;28;20205;-58
2022/03/25 06:20:03;;;;;;;25.93;22.57;;;3.00;99.90;;;3.91;71.70;98862.03;5212051;28;20228;-58
2022/03/25 06:22:39;;;;;;;28.33;24.13;;;3.00;99.90;;;3.93;71.08;98868.16;5215871;28;20550;-57
2022/03/25 06:25:14;;;;;;;28.53;23.83;;;3.10;99.90;;;4.12;70.85;98869.94;5218619;28;20219;-56
2022/03/25 06:27:54;;;;;;;29.00;23.67;;;3.20;99.90;;;4.26;70.41;98868.03;5214255;28;20554;-56
2022/03/25 06:30:31;;;;;;;28.77;24.27;;;3.30;99.90;;;4.49;68.81;98872.81;5214423;28;20224;-56
2022/03/25 06:33:06;;;;;;;28.03;24.00;;;3.40;99.90;;;4.98;68.67;98866.47;5217868;28;20204;-57
2022/03/25 06:35:40;;;;;;;27.27;23.70;;;3.80;99.90;;;5.48;66.62;98864.34;5215419;28;20197;-54
2022/03/25 06:38:13;;;;;;;30.00;23.00;;;4.20;99.90;;;5.69;65.83;98862.91;5211940;28;20220;-55
2022/03/25 06:40:46;;;;;;;27.03;23.27;;;4.40;99.90;;;6.08;64.54;98878.38;5216389;28;20226;-58
2022/03/25 06:43:20;;;;;;;26.83;23.17;;;4.70;99.90;;;6.24;63.87;98871.41;5216491;28;20201;-57
2022/03/25 06:45:53;;;;;;;26.00;23.10;;;5.00;99.90;;;6.58;62.80;98876.97;5215412;28;20233;-58
2022/03/25 06:48:27;;;;;;;26.23;23.50;;;5.20;99.90;;;6.90;61.21;98874.72;5218711;28;20577;-58
2022/03/25 06:51:04;;;;;;;27.13;24.03;;;5.50;99.50;;;7.15;59.75;98870.13;5220603;28;20661;-58
2022/03/25 06:53:38;;;;;;;26.10;23.03;;;5.60;99.10;;;7.38;60.15;98878.81;5216347;28;20649;-55
2022/03/25 06:56:13;;;;;;;26.93;23.43;;;5.80;99.20;;;7.91;58.76;98869.75;5219951;28;20681;-58
2022/03/25 06:58:48;;;;;;;28.33;25.07;;;6.10;98.70;;;8.45;56.80;98875.09;5217979;28;20225;-58
2022/03/25 07:01:22;;;;;;;27.27;23.43;;;6.50;98.00;;;8.80;55.46;98862.66;5223824;28;20207;-58
2022/03/25 07:03:56;;;;;;;26.47;22.93;;;6.80;97.70;;;9.10;53.89;98872.59;5215792;28;20650;-59
2022/03/25 07:06:31;;;;;;;25.20;22.47;;;7.00;96.40;;;9.46;52.54;98877.16;5217235;28;20231;-58
2022/03/25 07:09:05;;;;;;;24.60;22.00;;;7.10;96.10;;;9.85;52.55;98874.22;5220274;28;20219;-58
2022/03/25 07:11:42;;;;;;;25.47;22.87;;;7.30;96.10;;;10.31;51.35;98875.16;5221139;28;20280;-59
2022/03/25 07:14:16;;;;;;;26.07;23.37;;;7.70;95.30;;;10.31;51.26;98876.84;5218872;28;20657;-59
2022/03/25 07:16:50;;;;;;;26.00;23.27;;;7.90;95.20;;;10.00;50.83;98877.06;5217900;28;20676;-59
2022/03/25 07:19:25;;;;;;;25.93;23.20;;;8.00;93.90;;;10.00;50.87;98883.81;5214905;28;20245;-58
2022/03/25 07:21:58;;;;;;;26.40;23.60;;;8.10;94.10;;;9.94;50.63;98881.69;5219497;28;20201;-56
2022/03/25 07:24:31;;;;;;;30.30;24.50;;;8.30;94.00;;;9.88;51.50;98882.13;5217125;28;20194;-53
2022/03/25 07:27:04;;;;;;;26.83;23.93;;;8.40;93.70;;;10.13;51.33;98878.88;5218800;28;20220;-56
2022/03/25 07:29:39;;;;;;;26.30;23.67;;;8.40;93.70;;;10.27;51.05;98879.91;5224570;28;20223;-55
2022/03/25 07:32:12;;;;;;;27.57;23.93;;;8.70;93.20;;;10.35;50.56;98879.72;5221429;28;20661;-55
2022/03/25 07:34:45;;;;;;;26.27;23.67;;;8.90;93.20;;;10.46;51.35;98885.63;5216765;28;20247;-56
2022/03/25 07:37:18;;;;;;;27.40;24.50;;;9.00;93.10;;;10.50;49.14;98890.22;5217158;28;20567;-54
2022/03/25 07:39:51;;;;;;;27.37;23.93;;;9.00;92.10;;;10.67;50.58;98888.88;5216626;28;20221;-55
2022/03/25 07:42:24;;;;;;;28.07;24.97;;;9.20;92.90;;;10.88;50.20;98881.00;5223993;28;20205;-56
2022/03/25 07:44:58;;;;;;;27.10;24.40;;;9.60;92.00;;;10.95;49.87;98884.09;5217747;28;20296;-56
2022/03/25 07:47:32;;;;;;;29.87;25.33;;;9.60;91.60;;;11.04;49.54;98886.41;5214821;28;20307;-57
2022/03/25 07:50:09;;;;;;;28.00;25.00;;;9.70;91.40;;;11.21;48.29;98888.50;5215499;28;20665;-56
2022/03/25 07:52:42;;;;;;;27.53;24.53;;;10.00;90.70;;;11.29;48.30;98889.06;5218477;28;20289;-56
2022/03/25 07:55:18;;;;;;;27.27;24.40;;;10.10;90.60;;;11.46;47.80;98890.25;5216155;28;20700;-57
2022/03/25 07:57:51;;;;;;;29.20;25.57;;;10.30;90.20;;;11.79;47.41;98890.81;5213703;28;20197;-55
2022/03/25 08:00:26;;;;;;;28.23;25.23;;;10.50;90.20;;;11.99;46.58;98890.56;5213562;28;20225;-56
2022/03/25 08:02:59;;;;;;;29.60;26.53;;;10.90;88.70;;;12.10;45.60;98891.25;5222688;28;20200;-58
2022/03/25 08:05:32;;;;;;;28.47;25.23;;;11.00;87.00;;;12.30;45.94;98885.78;5218108;28;20211;-54
2022/03/25 08:08:06;;;;;;;28.92;25.80;;;11.10;87.80;;;12.40;44.85;98885.63;5214659;28;20490;-53
2022/03/25 08:10:39;;;;;;;29.20;25.40;;;11.30;85.40;;;12.61;44.74;98890.38;5221822;28;20701;-54
2022/03/25 08:13:12;;;;;;;29.40;26.20;;;11.50;85.80;;;12.77;42.64;98893.19;5222548;28;20288;-54
2022/03/25 08:15:47;;;;;;;29.25;26.13;;;11.80;82.30;;;12.89;42.33;98892.19;5222034;28;20202;-52
2022/03/25 08:18:21;;;;;;;32.10;26.33;;;12.00;81.70;;;12.98;42.19;98901.38;5220723;28;21001;-53
2022/03/25 08:20:57;;;;;;;28.80;25.85;;;12.00;81.80;;;13.09;42.26;98902.06;5221496;28;20216;-52
2022/03/25 08:29:09;;;;;;;28.38;25.38;;;12.80;78.70;;;13.74;41.13;98897.63;5179799;28;20221;-56
2022/03/25 08:31:51;;;;;;;28.98;25.95;;;12.80;78.60;;;14.00;40.29;98897.44;5217301;28;20197;-54
2022/03/25 08:34:24;;;;;;;27.98;25.05;;;13.10;78.90;;;13.97;40.44;98900.72;5211604;28;20683;-54
2022/03/25 08:36:57;;;;;;;29.00;26.02;;;12.90;78.50;;;14.05;40.26;98901.16;5225624;28;20201;-52
2022/03/25 08:39:30;;;;;;;28.17;25.17;;;13.00;78.60;;;14.24;40.08;98892.88;5216281;28;20232;-56
2022/03/25 08:42:05;;;;;;;28.58;25.50;;;13.30;77.50;;;14.37;39.19;98893.69;5220975;28;20209;-53
2022/03/25 08:44:38;;;;;;;28.95;25.90;;;13.50;76.80;;;14.46;38.45;98897.59;5222320;28;20698;-57
2022/03/25 08:47:13;;;;;;;28.33;25.30;;;13.50;75.60;;;14.62;39.24;98885.75;5213568;28;20214;-54
2022/03/25 08:49:46;;;;;;;28.48;25.33;;;13.70;76.00;;;14.89;37.71;98894.97;5217309;28;20217;-55
2022/03/25 08:52:20;;;;;;;28.27;25.00;;;14.00;74.50;;;14.95;38.06;98890.16;5223685;28;20585;-57
2022/03/25 08:54:54;;;;;;;27.52;24.52;;;14.10;74.70;;;15.15;38.72;98894.72;5218084;28;20205;-55
2022/03/25 08:57:27;;;;;;;27.90;24.98;;;14.40;74.20;;;15.24;37.55;98887.50;5222616;28;20205;-56
2022/03/25 09:00:00;;;;;;;27.60;24.58;;;14.50;73.40;;;15.42;36.68;98887.63;5221980;28;20573;-59
2022/03/25 09:02:36;;;;;;;28.50;25.02;;;14.60;71.30;;;15.57;36.27;98886.69;5221802;28;20651;-59
2022/03/25 09:05:10;;;;;;;27.58;24.63;;;14.70;70.70;;;15.73;35.93;98882.47;5219659;28;20204;-57
2022/03/25 09:07:44;;;;;;;31.73;26.45;;;14.90;70.80;;;15.88;35.29;98884.09;5218922;28;20229;-57
2022/03/25 09:10:17;;;;;;;27.92;24.95;;;15.10;68.90;;;16.20;34.00;98881.50;5225424;28;20685;-57
2022/03/25 09:12:50;;;;;;;31.98;26.35;;;15.40;67.10;;;16.30;33.43;98881.97;5223111;28;20208;-57
2022/03/25 09:15:24;;;;;;;28.52;25.50;;;15.30;66.50;;;16.20;33.49;98883.19;5225781;28;20255;-58
2022/03/25 09:17:58;;;;;;;28.77;25.67;;;15.30;66.40;;;16.31;33.98;98883.72;5215429;28;20198;-58
2022/03/25 09:20:31;;;;;;;28.45;25.42;;;15.30;67.50;;;16.41;33.13;98870.50;5221790;28;20242;-57
2022/03/25 09:23:04;;;;;;;30.17;26.85;;;15.60;65.40;;;16.48;33.09;98876.84;5219009;28;20215;-53
2022/03/25 09:25:38;;;;;;;28.55;25.45;;;15.60;65.90;;;16.55;33.56;98873.78;5220500;28;20205;-56
2022/03/25 09:28:11;;;;;;;28.88;25.67;;;15.70;66.30;;;16.77;32.64;98880.91;5214673;28;20225;-55
2022/03/25 09:30:44;;;;;;;28.95;25.95;;;16.00;65.00;;;16.80;33.97;98881.06;5211057;28;20586;-55
2022/03/25 09:33:19;;;;;;;29.42;26.40;;;16.10;66.10;;;16.91;33.57;98879.88;5218064;28;20653;-53
2022/03/25 09:35:52;;;;;;;28.08;25.17;;;16.10;66.20;;;17.14;33.20;98873.25;5224172;28;20599;-53
2022/03/25 09:38:26;;;;;;;29.42;25.95;;;16.40;66.10;;;17.13;33.13;98871.47;5220430;28;20220;-53
2022/03/25 09:41:07;;;;;;;28.00;25.00;;;16.50;65.00;;;16.98;34.04;98869.03;5223064;28;20193;-55
2022/03/25 09:43:40;;;;;;;29.02;25.55;;;16.30;66.90;;;16.88;34.62;98872.88;5217882;28;20203;-53
2022/03/25 09:46:13;;;;;;;29.17;26.08;;;16.30;67.10;;;17.02;34.06;98870.06;5217225;28;20210;-53
2022/03/25 09:48:48;;;;;;;28.30;25.40;;;16.20;66.60;;;16.89;33.68;98864.31;5211878;28;20225;-52
2022/03/25 09:51:33;;;;;;;28.17;25.25;;;16.00;66.90;;;17.11;34.24;98866.25;5217879;28;20197;-53
2022/03/25 09:54:06;;;;;;;29.98;26.77;;;16.30;66.70;;;17.43;33.46;98864.28;5221679;28;20549;-54
2022/03/25 09:56:41;;;;;;;28.92;25.92;;;16.80;65.30;;;17.35;34.14;98863.03;5224982;28;20198;-55
2022/03/25 09:59:17;;;;;;;29.13;25.73;;;16.70;66.10;;;17.45;33.81;98859.16;5216155;28;20213;-55
2022/03/25 10:01:50;;;;;;;31.15;27.73;;;16.90;65.80;;;17.74;33.44;98860.47;5223111;28;20668;-52
2022/03/25 10:04:42;;;;;;;32.38;26.25;;;17.10;65.30;;;17.82;32.75;98853.97;5223979;28;20197;-53
2022/03/25 10:07:20;;;;;;;29.48;26.33;;;17.20;65.00;;;17.81;33.46;98853.94;5213378;28;20597;-55
2022/03/25 10:10:09;;;;;;;29.88;26.15;;;17.20;65.20;;;17.87;33.59;98855.09;5221259;28;20251;-55
2022/03/25 10:12:45;;;;;;;29.63;26.42;;;17.30;65.10;;;17.95;33.22;98853.72;5219813;28;20208;-53
2022/03/25 10:15:21;;;;;;;29.70;26.45;;;17.40;64.80;;;17.89;33.31;98852.56;5219740;28;20431;-56
2022/03/25 10:17:57;;;;;;;29.00;26.00;;;17.30;65.70;;;18.00;33.05;98852.22;5219171;28;20197;-55
2022/03/25 10:20:34;;;;;;;29.48;25.48;;;17.40;65.20;;;18.02;33.16;98845.41;5214515;28;20213;-53
2022/03/25 10:23:11;;;;;;;30.25;26.25;;;17.40;64.80;;;18.12;33.24;98841.53;5218347;28;20675;-52
2022/03/25 10:25:48;;;;;;;30.42;26.58;;;17.40;64.90;;;18.11;33.45;98833.69;5216722;28;20429;-55
2022/03/25 10:28:27;;;;;;;30.25;26.92;;;17.50;65.20;;;18.31;33.04;98838.00;5222791;28;20221;-57
2022/03/25 10:31:03;;;;;;;29.38;26.27;;;17.60;65.60;;;18.57;32.63;98835.59;5222987;28;20688;-54
2022/03/25 10:33:44;;;;;;;30.27;27.13;;;17.90;64.40;;;18.78;32.34;98831.34;5220557;28;20193;-58
2022/03/25 10:36:21;;;;;;;29.45;26.35;;;18.20;63.50;;;18.93;31.56;98831.06;5215584;28;20373;-53
2022/03/25 10:38:57;;;;;;;31.48;28.27;;;18.30;62.50;;;18.75;31.15;98820.88;5217872;28;20208;-56
2022/03/25 10:41:38;;;;;;;31.48;28.20;;;18.10;61.90;;;18.82;32.02;98832.34;5223134;28;20723;-56
2022/03/25 10:44:12;;;;;;;31.23;27.98;;;18.10;62.70;;;19.12;30.27;98827.50;5215965;28;20563;-55
2022/03/25 10:46:49;;;;;;;29.73;26.67;;;18.40;60.40;;;19.07;30.46;98829.03;5217107;28;20210;-56
2022/03/25 10:49:22;;;;;;;30.83;27.52;;;18.40;61.40;;;19.01;31.02;98829.69;5212862;28;20298;-54